Time;durP1;ratioP1;P1;durP2;ratioP2;P2;SDS_P1;SDS_P2;PMS_P1;PMS_P2;Temp;Humidity;BMP_temperature;BMP_pressure;BME280_temperature;BME280_humidity;BME280_pressure;Samples;Min_cycle;Max_cycle;Signal;HPM_P1;HPM_P2
2022/09/06 00:00:10;;;;;;;4.77;4.10;;;;;;;;;;5073711;28;20285;-46
2022/09/06 00:02:36;;;;;;;7.07;4.43;;;;;;;;;;5073550;28;20211;-46
2022/09/06 00:05:03;;;;;;;5.73;4.57;;;;;;;;;;5073407;28;20736;-46
2022/09/06 00:07:30;;;;;;;6.37;4.63;;;;;;;;;;5073216;28;20265;-46
2022/09/06 00:09:56;;;;;;;5.57;4.53;;;;;;;;;;5073575;28;20541;-46
2022/09/06 00:12:22;;;;;;;5.73;4.30;;;;;;;;;;5073381;28;20257;-46
2022/09/06 00:14:48;;;;;;;5.03;4.10;;;;;;;;;;5071960;28;20195;-46
2022/09/06 00:17:14;;;;;;;7.70;3.93;;;;;;;;;;5073219;28;20393;-46
2022/09/06 00:19:40;;;;;;;4.57;4.17;;;;;;;;;;5073224;28;20322;-47
2022/09/06 00:22:06;;;;;;;4.83;4.33;;;;;;;;;;5073249;28;20202;-46
2022/09/06 00:24:35;;;;;;;4.63;4.20;;;;;;;;;;5073173;28;20222;-46
2022/09/06 00:27:01;;;;;;;4.70;4.33;;;;;;;;;;5071731;28;20254;-46
2022/09/06 00:29:27;;;;;;;6.53;4.73;;;;;;;;;;5073110;28;20191;-47
2022/09/06 00:31:53;;;;;;;5.80;4.53;;;;;;;;;;5072477;28;20726;-47
2022/09/06 00:34:19;;;;;;;4.57;4.17;;;;;;;;;;5073348;28;20314;-47
2022/09/06 00:36:45;;;;;;;4.33;3.97;;;;;;;;;;5073033;28;20206;-46
2022/09/06 00:39:11;;;;;;;4.57;4.17;;;;;;;;;;5073046;28;20253;-47
2022/09/06 00:41:39;;;;;;;7.13;4.13;;;;;;;;;;5073012;28;20227;-46
2022/09/06 00:44:05;;;;;;;7.13;4.50;;;;;;;;;;5072875;28;20313;-46
2022/09/06 00:46:32;;;;;;;4.93;4.53;;;;;;;;;;5072610;28;20203;-47
2022/09/06 00:49:00;;;;;;;5.20;4.20;;;;;;;;;;5072754;28;20544;-46
2022/09/06 00:51:27;;;;;;;7.67;4.23;;;;;;;;;;5072696;28;20199;-47
2022/09/06 00:53:53;;;;;;;5.53;4.50;;;;;;;;;;5072790;28;20213;-47
2022/09/06 00:56:19;;;;;;;6.30;4.63;;;;;;;;;;5072745;28;20195;-46
2022/09/06 00:58:48;;;;;;;5.17;4.67;;;;;;;;;;5072700;28;20196;-46
2022/09/06 01:01:14;;;;;;;4.80;4.40;;;;;;;;;;5070458;28;20233;-47
2022/09/06 01:03:40;;;;;;;5.60;4.83;;;;;;;;;;5072881;28;20220;-46
2022/09/06 01:06:13;;;;;;;5.27;4.77;;;;;;;;;;5072490;28;20204;-46
2022/09/06 01:08:49;;;;;;;5.07;4.67;;;;;;;;;;5070943;28;20261;-46
2022/09/06 01:11:29;;;;;;;4.90;4.50;;;;;;;;;;5072594;28;20198;-46
2022/09/06 01:14:00;;;;;;;7.47;4.87;;;;;;;;;;5069612;28;20226;-46
2022/09/06 01:16:34;;;;;;;5.63;5.07;;;;;;;;;;5072374;28;20207;-46
2022/09/06 01:19:07;;;;;;;4.93;4.53;;;;;;;;;;5072008;28;20190;-47
2022/09/06 01:21:38;;;;;;;5.07;4.63;;;;;;;;;;5072315;28;20227;-47
2022/09/06 01:24:28;;;;;;;5.00;4.60;;;;;;;;;;5072181;28;20229;-47
2022/09/06 01:27:12;;;;;;;4.90;4.50;;;;;;;;;;5056750;28;20286;-47
2022/09/06 01:29:42;;;;;;;5.10;4.70;;;;;;;;;;5070207;28;20274;-47
2022/09/06 01:32:12;;;;;;;5.90;5.00;;;;;;;;;;5068971;28;20603;-47
2022/09/06 01:34:40;;;;;;;5.70;5.20;;;;;;;;;;5071549;28;20198;-47
2022/09/06 01:37:09;;;;;;;5.90;4.90;;;;;;;;;;5071681;28;20202;-47
2022/09/06 01:39:36;;;;;;;4.67;4.33;;;;;;;;;;5071771;28;20207;-46
2022/09/06 01:42:04;;;;;;;5.33;4.83;;;;;;;;;;5071660;28;20212;-47
2022/09/06 01:44:30;;;;;;;4.97;4.57;;;;;;;;;;5070672;28;20203;-47
2022/09/06 01:47:00;;;;;;;6.50;5.03;;;;;;;;;;5071888;28;20195;-47
2022/09/06 01:49:33;;;;;;;6.83;4.90;;;;;;;;;;5071539;28;20204;-47
2022/09/06 01:52:03;;;;;;;6.90;4.53;;;;;;;;;;5071574;28;20369;-47
2022/09/06 01:54:36;;;;;;;5.00;4.60;;;;;;;;;;5071628;28;20538;-47
2022/09/06 01:57:09;;;;;;;4.70;4.30;;;;;;;;;;5071442;28;20202;-47
2022/09/06 01:59:43;;;;;;;4.90;4.50;;;;;;;;;;5071330;28;20235;-47
2022/09/06 02:02:12;;;;;;;5.20;4.70;;;;;;;;;;5071324;28;20277;-47
2022/09/06 02:04:44;;;;;;;5.23;4.77;;;;;;;;;;5071470;28;20717;-47
2022/09/06 02:07:12;;;;;;;6.90;4.80;;;;;;;;;;5071170;28;20725;-47
2022/09/06 02:09:40;;;;;;;6.50;4.40;;;;;;;;;;5071028;28;20261;-47
2022/09/06 02:12:07;;;;;;;6.77;4.87;;;;;;;;;;5071141;28;20206;-47
2022/09/06 02:14:36;;;;;;;5.40;4.90;;;;;;;;;;5071143;28;20245;-47
2022/09/06 02:17:02;;;;;;;5.87;5.37;;;;;;;;;;5071201;28;20200;-47
2022/09/06 02:19:32;;;;;;;5.50;4.60;;;;;;;;;;5071204;28;20208;-47
2022/09/06 02:22:03;;;;;;;6.43;4.77;;;;;;;;;;5071262;28;20715;-47
2022/09/06 02:24:30;;;;;;;6.70;5.10;;;;;;;;;;5071008;28;20207;-47
2022/09/06 02:26:57;;;;;;;5.80;4.83;;;;;;;;;;5071037;28;20183;-47
2022/09/06 02:29:23;;;;;;;6.70;5.20;;;;;;;;;;5070764;28;20619;-47
2022/09/06 02:31:50;;;;;;;5.30;4.80;;;;;;;;;;5070664;28;20287;-46
2022/09/06 02:34:17;;;;;;;5.57;5.03;;;;;;;;;;5070782;28;20222;-47
2022/09/06 02:36:43;;;;;;;10.97;4.67;;;;;;;;;;5071191;28;20207;-47
2022/09/06 02:39:11;;;;;;;5.30;4.70;;;;;;;;;;5070869;28;20293;-47
2022/09/06 02:41:37;;;;;;;7.03;5.00;;;;;;;;;;5070870;28;20321;-47
2022/09/06 02:44:03;;;;;;;6.27;5.40;;;;;;;;;;5068693;28;20203;-47
2022/09/06 02:46:29;;;;;;;5.60;5.10;;;;;;;;;;5070901;28;20203;-47
2022/09/06 02:48:56;;;;;;;5.97;5.03;;;;;;;;;;5071009;28;20202;-47
2022/09/06 02:51:22;;;;;;;5.30;4.80;;;;;;;;;;5070656;28;20195;-47
2022/09/06 02:53:48;;;;;;;5.40;4.90;;;;;;;;;;5070704;28;20202;-47
2022/09/06 02:56:15;;;;;;;6.27;5.20;;;;;;;;;;5070815;28;20214;-46
2022/09/06 02:58:42;;;;;;;5.53;5.03;;;;;;;;;;5070481;28;20210;-47
2022/09/06 03:01:08;;;;;;;5.43;5.00;;;;;;;;;;5068950;28;20269;-47
2022/09/06 03:03:34;;;;;;;5.33;4.80;;;;;;;;;;5070842;28;20207;-47
2022/09/06 03:06:00;;;;;;;4.87;4.47;;;;;;;;;;5069063;28;20318;-47
2022/09/06 03:08:32;;;;;;;4.90;4.50;;;;;;;;;;5068656;28;20309;-46
2022/09/06 03:10:58;;;;;;;6.00;4.80;;;;;;;;;;5071042;28;20195;-47
2022/09/06 03:13:25;;;;;;;5.27;4.57;;;;;;;;;;5070504;28;20264;-47
2022/09/06 03:15:51;;;;;;;4.90;4.50;;;;;;;;;;5070487;28;20231;-47
2022/09/06 03:18:17;;;;;;;6.43;5.33;;;;;;;;;;5070213;28;20214;-47
2022/09/06 03:20:43;;;;;;;5.27;4.50;;;;;;;;;;5069910;28;20231;-47
2022/09/06 03:23:09;;;;;;;5.33;4.83;;;;;;;;;;5070434;28;20659;-47
2022/09/06 03:25:36;;;;;;;6.37;4.60;;;;;;;;;;5070532;28;20204;-47
2022/09/06 03:28:02;;;;;;;7.47;4.57;;;;;;;;;;5068479;28;20204;-46
2022/09/06 03:30:29;;;;;;;4.80;4.40;;;;;;;;;;5070308;28;20286;-47
2022/09/06 03:32:55;;;;;;;5.87;4.87;;;;;;;;;;5070343;28;20635;-47
2022/09/06 03:35:21;;;;;;;5.50;5.00;;;;;;;;;;5070570;28;20834;-47
2022/09/06 03:37:47;;;;;;;5.30;4.87;;;;;;;;;;5070108;28;20735;-47
2022/09/06 03:40:13;;;;;;;5.77;5.20;;;;;;;;;;5070291;28;20231;-46
2022/09/06 03:42:39;;;;;;;5.47;4.97;;;;;;;;;;5070219;28;20804;-46
2022/09/06 03:45:06;;;;;;;5.07;4.57;;;;;;;;;;5070118;28;20202;-46
2022/09/06 03:47:33;;;;;;;5.50;5.00;;;;;;;;;;5070092;28;20228;-46
2022/09/06 03:49:59;;;;;;;6.80;4.47;;;;;;;;;;5070186;28;20203;-47
2022/09/06 03:52:25;;;;;;;5.63;4.93;;;;;;;;;;5070156;28;20294;-47
2022/09/06 03:54:51;;;;;;;5.30;4.80;;;;;;;;;;5070243;28;20238;-47
2022/09/06 03:57:17;;;;;;;6.03;4.77;;;;;;;;;;5069960;28;20661;-47
2022/09/06 03:59:43;;;;;;;6.10;5.17;;;;;;;;;;5069569;28;20240;-47
2022/09/06 04:02:09;;;;;;;7.27;4.63;;;;;;;;;;5070153;28;20653;-47
2022/09/06 04:04:37;;;;;;;5.50;5.00;;;;;;;;;;5069967;28;20202;-47
2022/09/06 04:07:03;;;;;;;5.37;4.87;;;;;;;;;;5070750;28;20222;-47
2022/09/06 04:09:29;;;;;;;5.70;5.20;;;;;;;;;;5073712;28;20630;-47
2022/09/06 04:11:55;;;;;;;4.83;4.43;;;;;;;;;;5073439;28;20277;-47
2022/09/06 04:14:20;;;;;;;5.50;4.93;;;;;;;;;;5073382;28;20267;-47
2022/09/06 04:16:46;;;;;;;5.20;4.70;;;;;;;;;;5073146;28;20195;-47
2022/09/06 04:19:12;;;;;;;5.00;4.50;;;;;;;;;;5073643;28;20656;-47
2022/09/06 04:21:40;;;;;;;5.23;4.50;;;;;;;;;;5073211;28;20231;-47
2022/09/06 04:24:06;;;;;;;5.27;4.80;;;;;;;;;;5073501;28;20198;-47
2022/09/06 04:26:32;;;;;;;4.70;4.30;;;;;;;;;;5073274;28;20195;-47
2022/09/06 04:28:58;;;;;;;6.33;4.23;;;;;;;;;;5074309;28;20268;-46
2022/09/06 04:31:24;;;;;;;8.17;4.80;;;;;;;;;;5073135;28;20625;-46
2022/09/06 04:33:50;;;;;;;4.70;4.30;;;;;;;;;;5073358;28;20237;-46
2022/09/06 04:36:16;;;;;;;4.77;4.37;;;;;;;;;;5073184;28;20226;-46
2022/09/06 04:38:44;;;;;;;4.67;4.30;;;;;;;;;;5073126;28;20558;-46
2022/09/06 04:41:11;;;;;;;5.93;4.47;;;;;;;;;;5073125;28;20232;-46
2022/09/06 04:43:37;;;;;;;6.30;4.40;;;;;;;;;;5072870;28;20206;-46
2022/09/06 04:46:04;;;;;;;6.83;4.97;;;;;;;;;;5073088;28;20206;-46
2022/09/06 04:48:30;;;;;;;4.60;4.23;;;;;;;;;;5072746;28;20598;-46
2022/09/06 04:50:55;;;;;;;5.47;4.70;;;;;;;;;;5073086;28;20264;-46
2022/09/06 04:53:22;;;;;;;4.70;4.30;;;;;;;;;;5072704;28;20202;-46
2022/09/06 04:55:49;;;;;;;5.03;4.63;;;;;;;;;;5072782;28;20542;-46
2022/09/06 04:58:15;;;;;;;5.00;4.60;;;;;;;;;;5070886;28;20206;-47
2022/09/06 05:00:43;;;;;;;4.90;4.47;;;;;;;;;;5072314;28;20778;-46
2022/09/06 05:03:09;;;;;;;5.23;4.20;;;;;;;;;;5072701;28;20206;-46
2022/09/06 05:05:35;;;;;;;5.83;4.67;;;;;;;;;;5072594;28;20198;-46
2022/09/06 05:08:01;;;;;;;4.87;4.33;;;;;;;;;;5072445;28;20317;-46
2022/09/06 05:10:27;;;;;;;6.17;4.27;;;;;;;;;;5072502;28;20609;-46
2022/09/06 05:12:54;;;;;;;5.10;4.70;;;;;;;;;;5071977;28;20240;-47
2022/09/06 05:15:21;;;;;;;7.90;4.57;;;;;;;;;;5071500;28;20279;-47
2022/09/06 05:17:48;;;;;;;5.50;4.30;;;;;;;;;;5071762;28;20205;-47
2022/09/06 05:20:14;;;;;;;4.50;4.10;;;;;;;;;;5072013;28;20222;-47
2022/09/06 05:22:40;;;;;;;8.80;4.70;;;;;;;;;;5071826;28;20197;-47
2022/09/06 05:25:07;;;;;;;7.03;4.43;;;;;;;;;;5072166;28;20263;-47
2022/09/06 05:27:33;;;;;;;4.60;4.20;;;;;;;;;;5071818;28;20265;-47
2022/09/06 05:30:02;;;;;;;4.77;4.30;;;;;;;;;;5071836;28;20221;-47
2022/09/06 05:32:28;;;;;;;4.80;4.40;;;;;;;;;;5071926;28;20221;-47
2022/09/06 05:34:54;;;;;;;4.70;4.27;;;;;;;;;;5070514;28;20596;-47
2022/09/06 05:37:20;;;;;;;8.00;4.70;;;;;;;;;;5071417;28;20205;-47
2022/09/06 05:39:46;;;;;;;5.97;4.33;;;;;;;;;;5071571;28;20200;-47
2022/09/06 05:42:12;;;;;;;5.10;4.63;;;;;;;;;;5071592;28;20228;-47
2022/09/06 05:44:38;;;;;;;5.77;4.70;;;;;;;;;;5071589;28;20234;-47
2022/09/06 05:47:05;;;;;;;5.40;4.13;;;;;;;;;;5070952;28;20201;-47
2022/09/06 05:49:31;;;;;;;5.07;4.57;;;;;;;;;;5070704;28;20214;-47
2022/09/06 05:51:57;;;;;;;4.70;4.03;;;;;;;;;;5071229;28;20195;-47
2022/09/06 05:54:23;;;;;;;8.73;5.43;;;;;;;;;;5071310;28;20193;-46
2022/09/06 05:56:50;;;;;;;7.97;5.13;;;;;;;;;;5071440;28;20197;-47
2022/09/06 05:59:16;;;;;;;7.23;5.60;;;;;;;;;;5071294;28;20248;-47
2022/09/06 06:01:46;;;;;;;6.67;4.63;;;;;;;;;;5071289;28;20229;-47
2022/09/06 06:04:14;;;;;;;5.73;4.87;;;;;;;;;;5069756;28;20202;-47
2022/09/06 06:06:40;;;;;;;5.43;4.93;;;;;;;;;;5071514;28;20247;-47
2022/09/06 06:09:06;;;;;;;4.77;4.33;;;;;;;;;;5071557;28;20239;-47
2022/09/06 06:11:32;;;;;;;5.13;4.73;;;;;;;;;;5068231;28;20219;-47
2022/09/06 06:13:58;;;;;;;6.10;5.00;;;;;;;;;;5071258;28;20231;-47
2022/09/06 06:16:24;;;;;;;8.30;5.23;;;;;;;;;;5071198;28;20199;-47
2022/09/06 06:18:51;;;;;;;6.13;4.47;;;;;;;;;;5070903;28;20207;-47
2022/09/06 06:21:19;;;;;;;7.93;4.77;;;;;;;;;;5070354;28;20291;-47
2022/09/06 06:23:46;;;;;;;6.50;5.33;;;;;;;;;;5070686;28;20207;-47
2022/09/06 06:26:12;;;;;;;6.43;5.10;;;;;;;;;;5069529;28;20196;-47
2022/09/06 06:28:39;;;;;;;5.40;4.70;;;;;;;;;;5070615;28;20210;-47
2022/09/06 06:31:06;;;;;;;5.40;5.00;;;;;;;;;;5070658;28;20199;-47
2022/09/06 06:33:32;;;;;;;5.60;5.10;;;;;;;;;;5070104;28;20268;-46
2022/09/06 06:35:59;;;;;;;5.80;5.03;;;;;;;;;;5070738;28;20290;-47
2022/09/06 06:38:30;;;;;;;7.30;5.30;;;;;;;;;;5070616;28;20227;-47
2022/09/06 06:40:56;;;;;;;9.70;5.23;;;;;;;;;;5071016;28;20724;-47
2022/09/06 06:43:22;;;;;;;7.13;5.10;;;;;;;;;;5070868;28;20227;-47
2022/09/06 06:45:49;;;;;;;5.63;5.10;;;;;;;;;;5070792;28;20198;-46
2022/09/06 06:48:15;;;;;;;6.40;5.40;;;;;;;;;;5070544;28;20199;-46
2022/09/06 06:50:41;;;;;;;10.43;5.73;;;;;;;;;;5071029;28;20235;-46
2022/09/06 06:53:07;;;;;;;6.67;5.90;;;;;;;;;;5070611;28;20731;-47
2022/09/06 06:55:34;;;;;;;6.17;5.43;;;;;;;;;;5070356;28;20270;-47
2022/09/06 06:58:00;;;;;;;8.40;5.67;;;;;;;;;;5070742;28;20712;-47
2022/09/06 07:00:26;;;;;;;6.60;5.70;;;;;;;;;;5070387;28;20240;-46
2022/09/06 07:02:54;;;;;;;9.30;6.20;;;;;;;;;;5070564;28;20218;-47
2022/09/06 07:05:20;;;;;;;9.33;5.80;;;;;;;;;;5070486;28;20549;-46
2022/09/06 07:07:46;;;;;;;6.20;5.60;;;;;;;;;;5070522;28;20227;-47
2022/09/06 07:10:12;;;;;;;6.60;6.00;;;;;;;;;;5070577;28;20230;-47
2022/09/06 07:12:40;;;;;;;6.43;5.57;;;;;;;;;;5068244;28;20206;-46
2022/09/06 07:15:06;;;;;;;7.10;6.40;;;;;;;;;;5070392;28;20298;-47
2022/09/06 07:17:33;;;;;;;7.40;5.97;;;;;;;;;;5069096;28;20291;-46
2022/09/06 07:19:59;;;;;;;6.80;6.13;;;;;;;;;;5070556;28;20199;-47
2022/09/06 07:22:25;;;;;;;6.97;5.83;;;;;;;;;;5070620;28;20196;-47
2022/09/06 07:24:51;;;;;;;6.27;5.60;;;;;;;;;;5070155;28;20214;-47
2022/09/06 07:27:17;;;;;;;6.57;5.93;;;;;;;;;;5070342;28;20696;-47
2022/09/06 07:29:44;;;;;;;6.40;5.70;;;;;;;;;;5070465;28;20385;-47
2022/09/06 07:32:10;;;;;;;8.13;5.90;;;;;;;;;;5070305;28;20688;-47
2022/09/06 07:34:38;;;;;;;7.47;6.60;;;;;;;;;;5070506;28;20199;-47
2022/09/06 07:37:04;;;;;;;7.47;6.73;;;;;;;;;;5067845;28;20219;-46
2022/09/06 07:39:31;;;;;;;8.00;7.23;;;;;;;;;;5070206;28;20666;-46
2022/09/06 07:41:57;;;;;;;7.50;6.80;;;;;;;;;;5070897;28;20589;-46
2022/09/06 07:44:23;;;;;;;8.20;6.83;;;;;;;;;;5073419;28;20257;-46
2022/09/06 07:46:51;;;;;;;7.77;7.07;;;;;;;;;;5073201;28;20287;-47
2022/09/06 07:49:17;;;;;;;8.57;6.70;;;;;;;;;;5073681;28;20763;-46
2022/09/06 07:51:43;;;;;;;6.63;6.10;;;;;;;;;;5074074;28;20223;-46
2022/09/06 07:54:09;;;;;;;7.30;6.53;;;;;;;;;;5073462;28;20560;-46
2022/09/06 07:56:35;;;;;;;6.67;6.17;;;;;;;;;;5074006;28;20196;-46
2022/09/06 07:59:02;;;;;;;7.77;6.30;;;;;;;;;;5071939;28;20325;-46
2022/09/06 08:01:29;;;;;;;7.23;6.53;;;;;;;;;;5073478;28;20632;-46
2022/09/06 08:03:57;;;;;;;8.03;6.30;;;;;;;;;;5073381;28;20256;-46
2022/09/06 08:06:23;;;;;;;9.40;6.60;;;;;;;;;;5073552;28;20196;-47
2022/09/06 08:08:50;;;;;;;7.03;6.30;;;;;;;;;;5073653;28;20206;-46
2022/09/06 08:11:16;;;;;;;6.80;6.20;;;;;;;;;;5073574;28;20193;-47
2022/09/06 08:13:42;;;;;;;7.20;6.50;;;;;;;;;;5073420;28;20199;-46
2022/09/06 08:16:08;;;;;;;8.93;6.63;;;;;;;;;;5073443;28;20634;-45
2022/09/06 08:18:35;;;;;;;7.80;6.43;;;;;;;;;;5073202;28;20666;-46
2022/09/06 08:21:10;;;;;;;6.60;6.00;;;;;;;;;;5071557;28;20274;-47
2022/09/06 08:23:36;;;;;;;6.67;5.10;;;;;;;;;;5073417;28;20203;-47
2022/09/06 08:26:02;;;;;;;6.03;5.43;;;;;;;;;;5072853;28;20227;-47
2022/09/06 08:28:28;;;;;;;6.60;5.90;;;;;;;;;;5073237;28;20202;-47
2022/09/06 08:30:54;;;;;;;6.17;5.57;;;;;;;;;;5073234;28;20304;-46
2022/09/06 08:33:24;;;;;;;7.33;6.30;;;;;;;;;;5073236;28;20204;-46
2022/09/06 08:35:56;;;;;;;6.53;5.77;;;;;;;;;;5073173;28;20204;-47
2022/09/06 08:38:23;;;;;;;6.00;5.40;;;;;;;;;;5072892;28;20218;-46
2022/09/06 08:40:50;;;;;;;8.83;6.67;;;;;;;;;;5072835;28;20240;-55
2022/09/06 08:43:17;;;;;;;7.83;6.50;;;;;;;;;;5068091;28;20239;-46
2022/09/06 08:45:44;;;;;;;7.13;6.43;;;;;;;;;;5072486;28;20207;-47
2022/09/06 08:48:10;;;;;;;7.50;6.10;;;;;;;;;;5067689;28;20225;-47
2022/09/06 08:50:37;;;;;;;8.60;7.80;;;;;;;;;;5072125;28;20193;-47
2022/09/06 08:53:06;;;;;;;6.87;6.20;;;;;;;;;;5070781;28;20192;-47
2022/09/06 08:55:39;;;;;;;7.17;6.20;;;;;;;;;;5071868;28;20241;-47
2022/09/06 08:58:22;;;;;;;7.60;6.80;;;;;;;;;;5071878;28;20207;-46
2022/09/06 09:00:50;;;;;;;6.90;6.30;;;;;;;;;;5070792;28;20353;-47
2022/09/06 09:03:18;;;;;;;7.17;6.47;;;;;;;;;;5071138;28;20199;-46
2022/09/06 09:05:47;;;;;;;6.90;6.30;;;;;;;;;;5071139;28;20188;-46
2022/09/06 09:08:18;;;;;;;8.20;6.43;;;;;;;;;;5071436;28;20216;-46
2022/09/06 09:10:47;;;;;;;6.60;6.00;;;;;;;;;;5071582;28;20207;-46
2022/09/06 09:13:16;;;;;;;7.20;6.50;;;;;;;;;;5072299;28;20639;-46
2022/09/06 09:15:42;;;;;;;7.17;6.47;;;;;;;;;;5071585;28;20700;-46
2022/09/06 09:18:08;;;;;;;8.27;6.43;;;;;;;;;;5070036;28;20240;-46
2022/09/06 09:20:36;;;;;;;7.10;6.40;;;;;;;;;;5069787;28;20251;-46
2022/09/06 09:23:02;;;;;;;7.43;6.20;;;;;;;;;;5071503;28;20244;-46
2022/09/06 09:25:31;;;;;;;6.37;5.80;;;;;;;;;;5071909;28;20647;-47
2022/09/06 09:27:59;;;;;;;6.83;5.77;;;;;;;;;;5071828;28;20200;-46
2022/09/06 09:30:26;;;;;;;6.47;5.60;;;;;;;;;;5071628;28;20682;-46
2022/09/06 09:32:52;;;;;;;8.27;6.33;;;;;;;;;;5064599;28;20204;-46
2022/09/06 09:35:20;;;;;;;7.83;6.07;;;;;;;;;;5069731;28;20219;-46
2022/09/06 09:37:46;;;;;;;7.33;6.63;;;;;;;;;;5068668;28;20562;-46
2022/09/06 09:40:13;;;;;;;8.53;6.43;;;;;;;;;;5070844;28;20242;-47
2022/09/06 09:42:40;;;;;;;6.77;5.73;;;;;;;;;;5071152;28;20263;-46
2022/09/06 09:45:22;;;;;;;9.23;6.23;;;;;;;;;;5071375;28;20720;-46
2022/09/06 09:47:48;;;;;;;8.47;6.53;;;;;;;;;;5071045;28;20287;-47
2022/09/06 09:50:22;;;;;;;6.33;5.73;;;;;;;;;;5069219;28;20383;-46
2022/09/06 09:52:48;;;;;;;7.17;5.60;;;;;;;;;;5071193;28;20212;-46
2022/09/06 09:55:14;;;;;;;7.43;5.33;;;;;;;;;;5071173;28;20253;-46
2022/09/06 09:57:44;;;;;;;6.20;5.57;;;;;;;;;;5071116;28;20203;-46
2022/09/06 10:00:12;;;;;;;6.27;5.67;;;;;;;;;;5070817;28;20269;-46
2022/09/06 10:02:39;;;;;;;7.63;6.13;;;;;;;;;;5065656;28;20200;-46
2022/09/06 10:05:08;;;;;;;5.40;4.90;;;;;;;;;;5061102;28;20250;-46
2022/09/06 10:07:34;;;;;;;6.47;5.40;;;;;;;;;;5065401;28;20224;-46
2022/09/06 10:10:03;;;;;;;6.17;5.57;;;;;;;;;;5070964;28;20285;-46
2022/09/06 10:12:30;;;;;;;6.67;5.43;;;;;;;;;;5070799;28;20667;-46
2022/09/06 10:14:56;;;;;;;5.60;5.10;;;;;;;;;;5070982;28;20195;-46
2022/09/06 10:17:29;;;;;;;6.93;5.90;;;;;;;;;;5070702;28;20205;-46
2022/09/06 10:19:55;;;;;;;6.30;5.50;;;;;;;;;;5070565;28;20205;-46
2022/09/06 10:22:28;;;;;;;7.97;5.23;;;;;;;;;;5068758;28;20238;-47
2022/09/06 10:25:28;;;;;;;5.53;4.97;;;;;;;;;;5070447;28;20234;-46
2022/09/06 10:28:09;;;;;;;6.63;5.00;;;;;;;;;;5070406;28;20649;-47
2022/09/06 10:30:40;;;;;;;6.20;4.80;;;;;;;;;;5055538;28;20240;-46
2022/09/06 10:33:13;;;;;;;5.33;4.43;;;;;;;;;;5070555;28;20293;-46
2022/09/06 10:35:40;;;;;;;4.60;4.20;;;;;;;;;;5071195;28;20208;-46
2022/09/06 10:38:12;;;;;;;4.70;4.30;;;;;;;;;;5068445;28;20245;-46
2022/09/06 10:40:40;;;;;;;5.03;4.53;;;;;;;;;;5070618;28;20223;-47
2022/09/06 10:43:08;;;;;;;6.20;4.90;;;;;;;;;;5071110;28;20215;-47
2022/09/06 10:45:37;;;;;;;6.80;5.30;;;;;;;;;;5070994;28;20226;-46
2022/09/06 10:48:08;;;;;;;5.30;4.33;;;;;;;;;;5070685;28;20230;-47
2022/09/06 10:50:41;;;;;;;5.30;4.67;;;;;;;;;;5070882;28;20194;-47
2022/09/06 10:53:12;;;;;;;5.73;4.57;;;;;;;;;;5070695;28;20290;-47
2022/09/06 10:55:39;;;;;;;5.10;4.47;;;;;;;;;;5067093;28;20196;-47
2022/09/06 10:58:06;;;;;;;7.10;4.47;;;;;;;;;;5069591;28;20196;-48
2022/09/06 11:00:33;;;;;;;5.00;4.60;;;;;;;;;;5069154;28;20248;-47
2022/09/06 11:03:01;;;;;;;4.83;4.30;;;;;;;;;;5069645;28;20615;-47
2022/09/06 11:05:30;;;;;;;6.43;4.40;;;;;;;;;;5067746;28;20729;-47
2022/09/06 11:07:59;;;;;;;5.57;4.70;;;;;;;;;;5070187;28;20246;-45
2022/09/06 11:10:27;;;;;;;6.53;4.30;;;;;;;;;;5070299;28;20251;-47
2022/09/06 11:12:56;;;;;;;5.83;4.60;;;;;;;;;;5070150;28;20891;-47
2022/09/06 11:15:24;;;;;;;5.00;4.50;;;;;;;;;;5068657;28;20327;-47
2022/09/06 11:17:51;;;;;;;6.33;4.20;;;;;;;;;;5074600;28;20199;-47
2022/09/06 11:20:21;;;;;;;6.50;3.97;;;;;;;;;;5074623;28;20256;-47
2022/09/06 11:23:04;;;;;;;4.70;3.93;;;;;;;;;;5074104;28;20197;-48
2022/09/06 11:25:50;;;;;;;4.87;3.97;;;;;;;;;;5074060;28;20631;-48
2022/09/06 11:28:18;;;;;;;3.87;3.47;;;;;;;;;;5074325;28;20205;-48
2022/09/06 11:30:45;;;;;;;4.07;3.73;;;;;;;;;;5073913;28;20190;-45
2022/09/06 11:33:17;;;;;;;6.57;4.27;;;;;;;;;;5073499;28;20224;-46
2022/09/06 11:35:43;;;;;;;4.30;3.90;;;;;;;;;;5073676;28;20205;-46
2022/09/06 11:38:18;;;;;;;4.17;3.77;;;;;;;;;;5074492;28;20206;-46
2022/09/06 11:40:45;;;;;;;4.33;3.87;;;;;;;;;;5074114;28;20223;-46
2022/09/06 11:43:16;;;;;;;4.40;3.53;;;;;;;;;;5074160;28;20201;-46
2022/09/06 11:45:44;;;;;;;4.83;3.50;;;;;;;;;;5073728;28;20199;-45
2022/09/06 11:48:33;;;;;;;4.47;3.70;;;;;;;;;;5073588;28;20203;-46
2022/09/06 11:51:05;;;;;;;5.17;3.70;;;;;;;;;;5072411;28;20205;-46
2022/09/06 11:53:33;;;;;;;4.67;3.70;;;;;;;;;;5073750;28;20207;-46
2022/09/06 11:56:22;;;;;;;6.60;3.83;;;;;;;;;;5073771;28;20210;-46
2022/09/06 11:58:51;;;;;;;5.53;3.97;;;;;;;;;;5073545;28;20303;-46
2022/09/06 12:01:33;;;;;;;5.20;3.53;;;;;;;;;;5073805;28;20228;-46
2022/09/06 12:04:01;;;;;;;8.13;3.90;;;;;;;;;;5073791;28;20596;-46
2022/09/06 12:06:29;;;;;;;4.93;3.20;;;;;;;;;;5073465;28;20260;-46
2022/09/06 12:08:56;;;;;;;4.00;3.50;;;;;;;;;;5072639;28;20207;-46
2022/09/06 12:11:25;;;;;;;4.37;3.30;;;;;;;;;;5072738;28;20204;-46
2022/09/06 12:13:56;;;;;;;6.67;3.50;;;;;;;;;;5073625;28;20672;-46
2022/09/06 12:16:22;;;;;;;4.60;3.47;;;;;;;;;;5073689;28;20204;-45
2022/09/06 12:18:55;;;;;;;5.60;3.67;;;;;;;;;;5073918;28;20201;-46
2022/09/06 12:21:36;;;;;;;4.03;3.10;;;;;;;;;;5073392;28;20231;-46
2022/09/06 12:24:04;;;;;;;4.40;3.03;;;;;;;;;;5073393;28;20198;-47
2022/09/06 12:26:53;;;;;;;11.90;3.70;;;;;;;;;;5071725;28;20246;-46
2022/09/06 12:29:23;;;;;;;3.60;3.10;;;;;;;;;;5072537;28;20689;-46
2022/09/06 12:31:51;;;;;;;7.57;3.20;;;;;;;;;;5073351;28;20278;-46
2022/09/06 12:34:18;;;;;;;7.30;3.50;;;;;;;;;;5073389;28;20277;-46
2022/09/06 12:36:52;;;;;;;6.50;3.73;;;;;;;;;;5073159;28;20664;-47
2022/09/06 12:39:23;;;;;;;6.93;3.60;;;;;;;;;;5073302;28;20213;-49
2022/09/06 12:41:49;;;;;;;6.27;3.40;;;;;;;;;;5072985;28;20217;-46
2022/09/06 12:44:16;;;;;;;11.13;3.70;;;;;;;;;;5073217;28;20206;-46
2022/09/06 12:46:45;;;;;;;4.17;3.20;;;;;;;;;;5072714;28;20205;-46
2022/09/06 12:49:11;;;;;;;5.93;2.70;;;;;;;;;;5071957;28;20698;-47
2022/09/06 12:51:38;;;;;;;8.33;3.60;;;;;;;;;;5072904;28;20331;-47
2022/09/06 12:54:05;;;;;;;4.30;3.17;;;;;;;;;;5073003;28;20200;-47
2022/09/06 12:56:33;;;;;;;6.93;3.00;;;;;;;;;;5070877;28;20337;-49
2022/09/06 12:59:13;;;;;;;6.00;3.07;;;;;;;;;;5069630;28;20292;-47
2022/09/06 13:01:41;;;;;;;6.57;3.30;;;;;;;;;;5071802;28;20227;-47
2022/09/06 13:04:08;;;;;;;5.00;3.23;;;;;;;;;;5072520;28;20195;-47
2022/09/06 13:06:38;;;;;;;5.57;3.10;;;;;;;;;;5071931;28;20564;-48
2022/09/06 13:09:05;;;;;;;6.53;3.30;;;;;;;;;;5071007;28;20231;-47
2022/09/06 13:11:35;;;;;;;3.63;3.03;;;;;;;;;;5071614;28;20199;-48
2022/09/06 13:14:08;;;;;;;7.30;3.40;;;;;;;;;;5072084;28;20306;-47
2022/09/06 13:16:36;;;;;;;3.83;3.00;;;;;;;;;;5072069;28;20199;-47
2022/09/06 13:19:10;;;;;;;8.90;3.43;;;;;;;;;;5072398;28;20242;-47
2022/09/06 13:21:39;;;;;;;6.20;3.20;;;;;;;;;;5070225;28;20240;-47
2022/09/06 13:24:18;;;;;;;3.93;3.07;;;;;;;;;;5072522;28;20200;-47
2022/09/06 13:26:45;;;;;;;5.57;2.70;;;;;;;;;;5071952;28;20223;-47
2022/09/06 13:29:21;;;;;;;4.73;2.80;;;;;;;;;;5070515;28;20255;-47
2022/09/06 13:31:47;;;;;;;3.63;2.93;;;;;;;;;;5072372;28;20206;-47
2022/09/06 13:34:19;;;;;;;5.97;3.23;;;;;;;;;;5072207;28;20666;-46
2022/09/06 13:36:48;;;;;;;6.10;2.93;;;;;;;;;;5071123;28;20897;-47
2022/09/06 13:39:27;;;;;;;3.57;2.80;;;;;;;;;;5071332;28;20301;-47
2022/09/06 13:41:55;;;;;;;5.73;3.30;;;;;;;;;;5071985;28;20228;-47
2022/09/06 13:44:28;;;;;;;4.50;2.90;;;;;;;;;;5071662;28;20204;-47
2022/09/06 13:46:54;;;;;;;6.97;3.60;;;;;;;;;;5071839;28;20228;-47
2022/09/06 13:49:22;;;;;;;4.60;2.90;;;;;;;;;;5071894;28;20270;-47
2022/09/06 13:51:48;;;;;;;8.10;3.27;;;;;;;;;;5071889;28;20234;-47
2022/09/06 13:54:14;;;;;;;4.30;2.90;;;;;;;;;;5071832;28;20630;-47
2022/09/06 13:56:41;;;;;;;9.93;3.10;;;;;;;;;;5071588;28;20200;-47
2022/09/06 13:59:09;;;;;;;5.70;3.10;;;;;;;;;;5069847;28;20318;-47
2022/09/06 14:01:35;;;;;;;4.37;3.30;;;;;;;;;;5071723;28;20228;-47
2022/09/06 14:04:01;;;;;;;6.03;3.00;;;;;;;;;;5071628;28;20199;-47
2022/09/06 14:06:27;;;;;;;6.40;3.43;;;;;;;;;;5071425;28;20207;-47
2022/09/06 14:08:54;;;;;;;7.80;3.20;;;;;;;;;;5071477;28;20196;-47
2022/09/06 14:11:20;;;;;;;6.43;2.90;;;;;;;;;;5071408;28;20237;-47
2022/09/06 14:13:46;;;;;;;4.83;2.87;;;;;;;;;;5070211;28;20290;-47
2022/09/06 14:16:14;;;;;;;7.07;2.90;;;;;;;;;;5071366;28;20215;-48
2022/09/06 14:18:40;;;;;;;4.27;3.00;;;;;;;;;;5071121;28;20245;-47
2022/09/06 14:21:06;;;;;;;3.60;3.03;;;;;;;;;;5070661;28;20651;-48
2022/09/06 14:23:32;;;;;;;5.53;3.30;;;;;;;;;;5071353;28;20219;-47
2022/09/06 14:25:59;;;;;;;7.03;3.40;;;;;;;;;;5070946;28;20288;-47
2022/09/06 14:28:26;;;;;;;5.83;2.93;;;;;;;;;;5071147;28;20239;-46
2022/09/06 14:30:52;;;;;;;4.97;3.40;;;;;;;;;;5071233;28;20604;-47
2022/09/06 14:33:20;;;;;;;4.93;3.10;;;;;;;;;;5069740;28;20233;-47
2022/09/06 14:35:46;;;;;;;3.47;2.70;;;;;;;;;;5070847;28;20741;-47
2022/09/06 14:38:12;;;;;;;7.13;3.00;;;;;;;;;;5070985;28;20204;-47
2022/09/06 14:40:39;;;;;;;4.10;2.83;;;;;;;;;;5070998;28;20661;-47
2022/09/06 14:43:05;;;;;;;6.83;3.13;;;;;;;;;;5070833;28;20203;-46
2022/09/06 14:45:32;;;;;;;4.83;3.17;;;;;;;;;;5070947;28;20211;-47
2022/09/06 14:47:58;;;;;;;4.53;2.83;;;;;;;;;;5071087;28;20715;-47